createdAt,value
2022-11-10T00:02:24.842Z,1.33
2022-11-10T00:05:27.268Z,0.90
2022-11-10T00:08:28.865Z,1.00
2022-11-10T00:11:30.245Z,1.20
2022-11-10T00:14:48.772Z,1.02
2022-11-10T00:17:50.212Z,1.27
2022-11-10T00:20:52.764Z,1.17
2022-11-10T00:23:53.797Z,1.20
2022-11-10T00:26:55.679Z,1.35
2022-11-10T00:29:56.717Z,1.10
2022-11-10T00:32:58.067Z,1.67
2022-11-10T00:36:02.394Z,1.25
2022-11-10T00:39:03.865Z,1.27
2022-11-10T00:42:05.245Z,1.50
2022-11-10T00:45:07.270Z,1.30
2022-11-10T00:48:08.517Z,1.30
2022-11-10T00:51:13.895Z,1.48
2022-11-10T00:54:15.421Z,1.40
2022-11-10T00:57:17.094Z,1.48
2022-11-10T01:00:18.410Z,2.00
2022-11-10T01:03:20.413Z,2.00
2022-11-10T01:06:23.696Z,1.35
2022-11-10T01:09:25.016Z,1.73
2022-11-10T01:12:29.138Z,1.70
2022-11-10T01:15:30.107Z,2.00
2022-11-10T01:18:31.221Z,1.90
2022-11-10T01:21:33.735Z,1.92
2022-11-10T01:24:34.986Z,1.80
2022-11-10T01:27:36.552Z,1.75
2022-11-10T01:30:37.869Z,1.52
2022-11-10T01:33:39.126Z,1.52
2022-11-10T01:36:41.523Z,2.08
2022-11-10T01:39:42.600Z,1.60
2022-11-10T01:42:46.072Z,1.52
2022-11-10T01:45:49.864Z,1.70
2022-11-10T01:48:52.958Z,1.58
2022-11-10T01:51:57.970Z,1.58
2022-11-10T01:54:59.444Z,1.60
2022-11-10T01:58:00.683Z,1.55
2022-11-10T02:01:02.088Z,1.50
2022-11-10T02:04:05.223Z,1.25
2022-11-10T02:07:09.355Z,1.48
2022-11-10T02:10:15.295Z,1.55
2022-11-10T02:13:17.081Z,1.42
2022-11-10T02:16:18.921Z,1.20
2022-11-10T02:19:20.922Z,1.60
2022-11-10T02:22:23.582Z,1.70
2022-11-10T02:25:26.691Z,1.50
2022-11-10T02:28:28.343Z,1.73
2022-11-10T02:31:29.251Z,1.80
2022-11-10T02:34:30.396Z,1.88
2022-11-10T02:37:33.164Z,1.50
2022-11-10T02:40:34.438Z,1.30
2022-11-10T02:43:35.642Z,1.35
2022-11-10T02:46:37.608Z,1.15
2022-11-10T02:49:38.984Z,1.30
2022-11-10T02:52:41.976Z,1.52
2022-11-10T02:55:43.370Z,1.60
2022-11-10T02:58:44.509Z,1.50
2022-11-10T03:01:46.061Z,1.30
2022-11-10T03:04:47.322Z,1.50
2022-11-10T03:07:55.424Z,1.70
2022-11-10T03:10:57.078Z,1.40
2022-11-10T03:14:01.928Z,1.80
2022-11-10T03:17:03.635Z,1.40
2022-11-10T03:20:05.293Z,1.70
2022-11-10T03:23:08.226Z,2.05
2022-11-10T03:26:09.279Z,1.63
2022-11-10T03:29:10.374Z,2.08
2022-11-10T03:32:11.732Z,1.85
2022-11-10T03:35:12.874Z,2.10
2022-11-10T03:38:15.518Z,2.08
2022-11-10T03:41:20.641Z,2.05
2022-11-10T03:44:21.959Z,2.13
2022-11-10T03:47:23.533Z,2.25
2022-11-10T03:50:24.665Z,2.28
2022-11-10T03:53:27.053Z,2.17
2022-11-10T03:56:28.063Z,2.58
2022-11-10T03:59:29.020Z,2.55
2022-11-10T04:02:30.333Z,2.17
2022-11-10T04:05:48.697Z,2.80
2022-11-10T04:09:00.393Z,2.20
2022-11-10T04:12:16.157Z,2.42
2022-11-10T04:15:37.737Z,2.35
2022-11-10T04:18:39.280Z,2.53
2022-11-10T04:21:40.612Z,2.95
2022-11-10T04:24:43.084Z,2.47
2022-11-10T04:27:44.327Z,2.88
2022-11-10T04:30:45.780Z,3.13
2022-11-10T04:33:47.666Z,3.08
2022-11-10T04:36:48.799Z,2.80
2022-11-10T04:39:51.191Z,3.55
2022-11-10T04:42:52.368Z,3.28
2022-11-10T04:45:53.556Z,3.40
2022-11-10T04:48:55.275Z,3.58
2022-11-10T04:51:57.058Z,3.47
2022-11-10T04:54:59.764Z,3.80
2022-11-10T04:58:00.846Z,3.75
2022-11-10T05:01:02.005Z,3.45
2022-11-10T05:04:05.594Z,3.55
2022-11-10T05:07:07.382Z,4.00
2022-11-10T05:10:10.939Z,4.10
2022-11-10T05:13:12.077Z,4.35
2022-11-10T05:16:13.649Z,3.95
2022-11-10T05:19:14.901Z,4.03
2022-11-10T05:22:16.435Z,4.25
2022-11-10T05:25:19.306Z,4.05
2022-11-10T05:28:20.910Z,4.40
2022-11-10T05:31:21.948Z,4.47
2022-11-10T05:34:23.188Z,4.40
2022-11-10T05:37:24.767Z,4.60
2022-11-10T05:40:27.554Z,4.25
2022-11-10T05:43:28.979Z,4.72
2022-11-10T05:46:31.571Z,5.25
2022-11-10T05:49:32.630Z,5.22
2022-11-10T05:52:34.041Z,4.97
2022-11-10T05:55:36.847Z,5.13
2022-11-10T05:58:37.889Z,4.70
2022-11-10T06:01:39.145Z,5.32
2022-11-10T06:04:40.201Z,5.55
2022-11-10T06:07:41.584Z,5.18
2022-11-10T06:10:43.934Z,4.82
2022-11-10T06:13:45.062Z,5.32
2022-11-10T06:16:46.545Z,5.20
2022-11-10T06:19:47.960Z,5.15
2022-11-10T06:22:59.422Z,5.20
2022-11-10T06:26:01.952Z,5.05
2022-11-10T06:29:03.342Z,5.10
2022-11-10T06:32:04.694Z,4.50
2022-11-10T06:35:06.131Z,4.78
2022-11-10T06:38:08.454Z,4.38
2022-11-10T06:41:10.828Z,4.22
2022-11-10T06:44:12.043Z,4.40
2022-11-10T06:47:13.085Z,4.20
2022-11-10T06:50:13.917Z,4.50
2022-11-10T06:53:15.203Z,4.93
2022-11-10T06:56:17.802Z,4.00
2022-11-10T06:59:19.496Z,4.00
2022-11-10T07:02:21.464Z,4.55
2022-11-10T07:05:22.654Z,3.78
2022-11-10T07:08:23.877Z,4.00
2022-11-10T07:11:26.621Z,4.32
2022-11-10T07:14:27.927Z,3.75
2022-11-10T07:17:29.471Z,3.55
2022-11-10T07:20:30.925Z,3.55
2022-11-10T07:23:32.277Z,4.00
2022-11-10T07:26:34.788Z,3.40
2022-11-10T07:29:36.199Z,4.03
2022-11-10T07:32:37.667Z,3.85
2022-11-10T07:35:38.807Z,3.55
2022-11-10T07:38:40.054Z,3.80
2022-11-10T07:41:42.536Z,3.97
2022-11-10T07:44:43.984Z,4.10
2022-11-10T07:47:45.451Z,4.20
2022-11-10T07:50:46.918Z,3.92
2022-11-10T07:53:48.111Z,3.55
2022-11-10T07:56:50.924Z,4.10
2022-11-10T07:59:55.459Z,3.92
2022-11-10T08:03:02.401Z,4.20
2022-11-10T08:06:03.496Z,4.32
2022-11-10T08:09:04.795Z,4.22
2022-11-10T08:12:07.517Z,4.78
2022-11-10T08:15:09.000Z,4.45
2022-11-10T08:18:15.654Z,4.65
2022-11-10T08:21:17.384Z,5.10
2022-11-10T08:24:18.679Z,5.07
2022-11-10T08:27:21.785Z,5.10
2022-11-10T08:30:23.153Z,4.70
2022-11-10T08:33:25.125Z,5.28
2022-11-10T08:36:26.833Z,4.90
2022-11-10T08:39:38.644Z,5.35
2022-11-10T08:42:42.053Z,5.70
2022-11-10T08:45:44.080Z,5.72
2022-11-10T08:48:45.170Z,5.85
2022-11-10T08:51:46.597Z,5.13
2022-11-10T08:54:47.546Z,5.47
2022-11-10T08:57:50.366Z,5.47
2022-11-10T09:00:52.147Z,5.85
2022-11-10T09:03:53.404Z,5.85
2022-11-10T09:06:57.753Z,6.03
2022-11-10T09:10:07.090Z,5.22
2022-11-10T09:13:11.072Z,6.00
2022-11-10T09:16:12.395Z,5.90
2022-11-10T09:19:19.509Z,5.55
2022-11-10T09:22:21.334Z,6.20
2022-11-10T09:25:23.039Z,5.55
2022-11-10T09:28:26.815Z,5.78
2022-11-10T09:31:27.943Z,5.45
2022-11-10T09:34:29.253Z,5.97
2022-11-10T09:37:30.512Z,5.68
2022-11-10T09:40:34.826Z,6.03
2022-11-10T09:43:40.687Z,6.35
2022-11-10T09:46:42.906Z,5.50
2022-11-10T09:49:46.056Z,6.05
2022-11-10T09:52:48.726Z,5.35
2022-11-10T09:55:50.423Z,5.22
2022-11-10T09:58:53.042Z,5.53
2022-11-10T10:01:57.322Z,5.05
2022-11-10T10:05:14.641Z,5.30
2022-11-10T10:08:18.643Z,5.32
2022-11-10T10:11:26.696Z,5.18
2022-11-10T10:14:37.508Z,5.07
2022-11-10T10:17:42.548Z,5.40
2022-11-10T10:20:47.991Z,4.90
2022-11-10T10:27:16.674Z,4.90
2022-11-10T10:30:21.539Z,4.88
2022-11-10T10:33:23.502Z,5.10
2022-11-10T10:36:25.984Z,4.45
2022-11-10T10:39:30.344Z,4.90
2022-11-10T10:42:32.453Z,4.13
2022-11-10T10:45:39.366Z,4.78
2022-11-10T10:48:40.945Z,4.38
2022-11-10T10:51:42.300Z,4.72
2022-11-10T10:54:43.702Z,5.03
2022-11-10T10:57:50.781Z,4.35
2022-11-10T11:00:53.975Z,4.82
2022-11-10T11:03:55.552Z,4.63
2022-11-10T11:06:57.698Z,4.10
2022-11-10T11:10:01.824Z,4.05
2022-11-10T11:13:14.136Z,3.88
2022-11-10T11:16:17.091Z,4.30
2022-11-10T11:19:19.500Z,3.92
2022-11-10T11:22:38.705Z,3.97
2022-11-10T11:25:43.140Z,3.60
2022-11-10T11:28:50.442Z,3.92
2022-11-10T11:31:59.008Z,3.67
2022-11-10T11:35:04.397Z,3.67
2022-11-10T11:38:11.511Z,3.53
2022-11-10T11:41:20.486Z,3.53
2022-11-10T11:44:33.323Z,3.63
2022-11-10T11:47:43.360Z,3.30
2022-11-10T11:50:50.361Z,3.60
2022-11-10T11:53:58.916Z,3.38
2022-11-10T11:57:05.745Z,3.80
2022-11-10T12:00:11.821Z,3.50
2022-11-10T12:03:37.572Z,3.45
2022-11-10T12:06:43.242Z,3.50
2022-11-10T12:09:46.487Z,3.35
2022-11-10T12:13:02.508Z,3.10
2022-11-10T12:16:07.155Z,3.45
2022-11-10T12:19:19.577Z,3.13
2022-11-10T12:22:25.382Z,3.33
2022-11-10T12:25:29.102Z,3.22
2022-11-10T12:28:32.538Z,3.53
2022-11-10T12:31:36.035Z,3.25
2022-11-10T12:34:42.671Z,2.85
2022-11-10T12:37:45.578Z,3.30
2022-11-10T12:40:48.572Z,2.97
2022-11-10T12:43:58.942Z,3.05
2022-11-10T12:47:02.229Z,3.50
2022-11-10T12:50:10.749Z,3.00
2022-11-10T12:53:14.467Z,2.95
2022-11-10T12:56:19.111Z,2.80
2022-11-10T12:59:25.916Z,2.90
2022-11-10T13:02:29.916Z,2.65
2022-11-10T13:05:35.209Z,3.08
2022-11-10T13:08:39.122Z,2.60
2022-11-10T13:11:41.292Z,2.88
2022-11-10T13:14:42.911Z,2.65
2022-11-10T13:17:54.482Z,2.45
2022-11-10T13:20:58.014Z,2.80
2022-11-10T13:24:18.473Z,2.50
2022-11-10T13:27:35.110Z,2.20
2022-11-10T13:30:40.996Z,2.55
2022-11-10T13:33:42.067Z,2.22
2022-11-10T13:36:45.276Z,2.40
2022-11-10T13:39:46.654Z,2.25
2022-11-10T13:43:11.696Z,2.03
2022-11-10T13:46:12.816Z,2.30
2022-11-10T13:49:21.259Z,2.20
2022-11-10T13:52:27.051Z,2.10
2022-11-10T13:55:33.003Z,1.73
2022-11-10T13:58:35.929Z,1.90
2022-11-10T14:01:37.444Z,2.20
2022-11-10T14:04:41.224Z,2.10
2022-11-10T14:07:45.280Z,1.90
2022-11-10T14:10:50.690Z,2.10
2022-11-10T14:13:55.581Z,1.90
2022-11-10T14:16:56.922Z,2.00
2022-11-10T14:20:00.051Z,1.67
2022-11-10T14:23:05.973Z,1.70
2022-11-10T14:26:12.957Z,1.90
2022-11-10T14:29:21.011Z,2.55
2022-11-10T14:32:24.716Z,1.65
2022-11-10T14:35:27.888Z,1.98
2022-11-10T14:38:33.878Z,1.90
2022-11-10T14:41:35.750Z,1.80
2022-11-10T14:44:37.192Z,1.65
2022-11-10T14:47:38.522Z,1.92
2022-11-10T14:50:41.052Z,1.50
2022-11-10T14:53:48.023Z,1.70
2022-11-10T14:56:49.732Z,1.63
2022-11-10T14:59:50.819Z,1.63
2022-11-10T15:02:52.911Z,1.50
2022-11-10T15:05:54.297Z,1.70
2022-11-10T15:08:57.000Z,1.60
2022-11-10T15:12:16.216Z,1.70
2022-11-10T15:15:19.660Z,1.50
2022-11-10T15:18:27.622Z,1.83
2022-11-10T15:21:30.561Z,1.52
2022-11-10T15:24:33.342Z,1.70
2022-11-10T15:27:34.596Z,1.92
2022-11-10T15:30:36.123Z,1.58
2022-11-10T15:33:38.721Z,1.50
2022-11-10T15:36:40.554Z,1.60
2022-11-10T15:39:43.194Z,1.83
2022-11-10T15:42:44.934Z,1.55
2022-11-10T15:45:47.468Z,1.42
2022-11-10T15:48:49.649Z,1.52
2022-11-10T15:51:52.277Z,1.70
2022-11-10T15:54:55.253Z,1.40
2022-11-10T15:57:56.356Z,1.60
2022-11-10T16:00:57.585Z,1.70
2022-11-10T16:03:58.748Z,1.67
2022-11-10T16:07:00.859Z,1.17
2022-11-10T16:10:04.078Z,1.20
2022-11-10T16:13:05.426Z,1.52
2022-11-10T16:16:07.191Z,1.50
2022-11-10T16:19:10.698Z,1.33
2022-11-10T16:22:12.100Z,1.10
2022-11-10T16:25:22.566Z,1.58
2022-11-10T16:28:26.829Z,1.25
2022-11-10T16:31:29.263Z,1.40
2022-11-10T16:34:30.451Z,1.38
2022-11-10T16:37:34.832Z,1.60
2022-11-10T16:40:38.374Z,1.23
2022-11-10T16:43:39.718Z,1.70
2022-11-10T16:46:41.490Z,1.63
2022-11-10T16:49:44.242Z,1.10
2022-11-10T16:52:45.480Z,1.52
2022-11-10T16:55:47.930Z,1.15
2022-11-10T16:58:49.300Z,1.98
2022-11-10T17:01:51.152Z,1.23
2022-11-10T17:04:52.618Z,1.30
2022-11-10T17:07:53.919Z,1.35
2022-11-10T17:10:56.898Z,1.73
2022-11-10T17:13:57.985Z,1.10
2022-11-10T17:16:59.332Z,1.50
2022-11-10T17:20:00.383Z,1.20
2022-11-10T17:23:02.568Z,1.33
2022-11-10T17:26:05.848Z,1.35
2022-11-10T17:29:07.132Z,1.60
2022-11-10T17:32:08.590Z,1.38
2022-11-10T17:35:10.337Z,1.23
2022-11-10T17:38:12.709Z,1.13
2022-11-10T17:41:17.848Z,1.20
2022-11-10T17:44:19.613Z,1.38
2022-11-10T17:47:21.088Z,1.35
2022-11-10T17:50:23.415Z,1.10
2022-11-10T17:53:26.558Z,1.33
2022-11-10T17:56:29.921Z,1.70
2022-11-10T17:59:30.962Z,1.17
2022-11-10T18:02:32.247Z,1.10
2022-11-10T18:05:33.228Z,1.10
2022-11-10T18:08:34.378Z,1.42
2022-11-10T18:11:36.907Z,1.27
2022-11-10T18:14:37.856Z,1.20
2022-11-10T18:17:39.186Z,1.17
2022-11-10T18:20:40.562Z,1.50
2022-11-10T18:23:43.713Z,1.38
2022-11-10T18:26:47.368Z,1.20
2022-11-10T18:29:48.808Z,1.38
2022-11-10T18:32:50.088Z,1.33
2022-11-10T18:35:51.202Z,1.15
2022-11-10T18:38:52.246Z,1.52
2022-11-10T18:41:54.973Z,1.50
2022-11-10T18:44:56.123Z,1.55
2022-11-10T18:48:01.575Z,1.40
2022-11-10T18:51:05.533Z,1.33
2022-11-10T18:54:06.964Z,1.27
2022-11-10T18:57:11.899Z,1.33
2022-11-10T19:00:13.522Z,1.45
2022-11-10T19:03:14.673Z,1.58
2022-11-10T19:06:16.404Z,1.30
2022-11-10T19:09:18.048Z,1.58
2022-11-10T19:12:26.350Z,1.42
2022-11-10T19:15:28.163Z,1.30
2022-11-10T19:18:30.166Z,1.52
2022-11-10T19:21:31.706Z,1.33
2022-11-10T19:24:42.464Z,1.65
2022-11-10T19:27:56.807Z,1.15
2022-11-10T19:31:01.336Z,1.08
2022-11-10T19:34:02.969Z,1.55
2022-11-10T19:37:04.268Z,1.20
2022-11-10T19:40:06.109Z,1.50
2022-11-10T19:43:09.433Z,1.58
2022-11-10T19:46:13.330Z,1.20
2022-11-10T19:49:15.081Z,1.50
2022-11-10T19:52:16.435Z,1.10
2022-11-10T19:55:18.068Z,1.38
2022-11-10T19:58:20.818Z,1.00
2022-11-10T20:01:22.247Z,1.27
2022-11-10T20:04:23.868Z,1.00
2022-11-10T20:07:42.259Z,1.30
2022-11-10T20:10:44.591Z,1.10
2022-11-10T20:13:51.962Z,1.00
2022-11-10T20:16:55.800Z,1.10
2022-11-10T20:19:58.295Z,1.15
2022-11-10T20:23:01.415Z,1.33
2022-11-10T20:26:03.996Z,1.50
2022-11-10T20:29:06.861Z,0.88
2022-11-10T20:32:07.867Z,1.10
2022-11-10T20:35:08.967Z,1.05
2022-11-10T20:38:11.191Z,1.10
2022-11-10T20:41:16.431Z,1.23
2022-11-10T20:44:18.896Z,1.00
2022-11-10T20:47:20.177Z,1.30
2022-11-10T20:50:24.422Z,0.93
2022-11-10T20:53:26.427Z,1.08
2022-11-10T20:56:30.004Z,0.95
2022-11-10T20:59:33.314Z,1.20
2022-11-10T21:02:34.684Z,0.93
2022-11-10T21:05:35.758Z,0.95
2022-11-10T21:08:36.869Z,1.02
2022-11-10T21:11:55.858Z,1.52
2022-11-10T21:14:58.715Z,1.17
2022-11-10T21:17:59.954Z,0.98
2022-11-10T21:21:00.989Z,1.17
2022-11-10T21:24:02.052Z,1.00
2022-11-10T21:27:03.493Z,1.10
2022-11-10T21:30:10.129Z,1.00
2022-11-10T21:33:14.613Z,1.20
2022-11-10T21:36:16.102Z,1.42
2022-11-10T21:39:17.149Z,1.15
2022-11-10T21:42:20.821Z,1.23
2022-11-10T21:45:23.498Z,1.10
2022-11-10T21:48:24.860Z,1.23
2022-11-10T21:51:25.830Z,1.10
2022-11-10T21:54:26.935Z,1.30
2022-11-10T21:57:27.890Z,1.23
2022-11-10T22:00:30.496Z,1.40
2022-11-10T22:03:32.359Z,1.10
2022-11-10T22:06:47.562Z,1.17
2022-11-10T22:10:06.449Z,1.33
2022-11-10T22:13:32.351Z,1.58
2022-11-10T22:16:53.567Z,1.50
2022-11-10T22:19:54.980Z,1.27
2022-11-10T22:22:56.413Z,1.33
2022-11-10T22:25:57.368Z,1.58
2022-11-10T22:28:58.493Z,1.83
2022-11-10T22:32:01.292Z,1.88
2022-11-10T22:35:02.370Z,1.60
2022-11-10T22:38:04.199Z,1.83
2022-11-10T22:41:23.037Z,1.70
2022-11-10T22:44:25.293Z,2.13
2022-11-10T22:47:48.164Z,1.50
2022-11-10T22:50:54.177Z,1.58
2022-11-10T22:53:55.626Z,1.52
2022-11-10T22:56:56.954Z,1.77
2022-11-10T22:59:58.109Z,1.48
2022-11-10T23:03:00.835Z,1.40
2022-11-10T23:06:01.720Z,1.65
2022-11-10T23:09:02.945Z,1.60
2022-11-10T23:12:04.344Z,1.42
2022-11-10T23:15:05.640Z,1.70
2022-11-10T23:18:08.338Z,1.58
2022-11-10T23:21:10.181Z,1.42
2022-11-10T23:24:13.501Z,1.50
2022-11-10T23:27:15.272Z,1.50
2022-11-10T23:30:16.904Z,1.30
2022-11-10T23:33:19.590Z,1.50
2022-11-10T23:36:21.952Z,1.45
2022-11-10T23:39:22.975Z,1.40
2022-11-10T23:42:24.633Z,1.33
2022-11-10T23:45:32.851Z,1.33
2022-11-10T23:48:48.965Z,1.60
2022-11-10T23:51:50.398Z,1.55
2022-11-10T23:54:51.682Z,1.60
2022-11-10T23:57:53.016Z,1.40
